Time;durP1;ratioP1;P1;durP2;ratioP2;P2;SDS_P1;SDS_P2;PMS_P1;PMS_P2;Temp;Humidity;BMP_temperature;BMP_pressure;BME280_temperature;BME280_humidity;BME280_pressure;Samples;Min_cycle;Max_cycle;Signal;HPM_P1;HPM_P2
2023/12/02 00:00:00;;;;;;;10.63;6.23;;;-1.70;99.90;;;;;;4898767;29;20197;-85
2023/12/02 00:02:26;;;;;;;10.13;6.20;;;-1.70;99.90;;;;;;4896792;29;20222;-86
2023/12/02 00:04:51;;;;;;;9.27;5.80;;;-1.70;99.90;;;;;;4898040;29;20289;-86
2023/12/02 00:07:17;;;;;;;9.20;5.87;;;-1.70;99.90;;;;;;4890291;29;20744;-86
2023/12/02 00:09:43;;;;;;;8.50;5.43;;;-1.60;99.90;;;;;;4898824;29;20286;-86
2023/12/02 00:12:08;;;;;;;9.53;5.40;;;-1.60;99.90;;;;;;4902875;29;20179;-86
2023/12/02 00:14:34;;;;;;;8.77;5.87;;;-1.60;99.90;;;;;;4901653;29;20201;-87
2023/12/02 00:17:00;;;;;;;8.37;5.20;;;-1.60;99.90;;;;;;4902412;29;20530;-85
2023/12/02 00:19:25;;;;;;;7.90;5.37;;;-1.60;99.90;;;;;;4902497;29;20630;-85
2023/12/02 00:21:52;;;;;;;7.87;4.90;;;-1.60;99.90;;;;;;4901401;29;20184;-87
2023/12/02 00:24:17;;;;;;;6.70;4.43;;;-1.60;99.90;;;;;;4902656;29;20247;-85
2023/12/02 00:26:43;;;;;;;7.17;5.07;;;-1.60;99.90;;;;;;4898644;29;20179;-85
2023/12/02 00:29:09;;;;;;;7.50;5.10;;;-1.60;99.90;;;;;;4893614;29;20632;-86
2023/12/02 00:31:35;;;;;;;8.03;5.27;;;-1.70;99.90;;;;;;4902384;29;20273;-86
2023/12/02 00:34:01;;;;;;;7.87;4.77;;;-1.70;99.90;;;;;;4901745;29;20229;-85
2023/12/02 00:36:32;;;;;;;7.07;4.40;;;-1.70;99.90;;;;;;4893857;29;20191;-86
2023/12/02 00:38:57;;;;;;;7.77;5.00;;;-1.70;99.90;;;;;;4894329;29;20191;-86
2023/12/02 00:41:23;;;;;;;6.40;4.20;;;-1.70;99.90;;;;;;4902315;29;20275;-85
2023/12/02 00:43:48;;;;;;;7.03;4.50;;;-1.70;99.90;;;;;;4902347;29;20246;-85
2023/12/02 00:46:14;;;;;;;7.00;4.27;;;-1.70;99.90;;;;;;4902102;29;20195;-86
2023/12/02 00:48:40;;;;;;;6.23;4.50;;;-1.70;99.90;;;;;;4898340;29;20187;-85
2023/12/02 00:51:06;;;;;;;6.00;4.10;;;-1.70;99.90;;;;;;4900752;29;20530;-86
2023/12/02 00:53:31;;;;;;;6.17;4.13;;;-1.70;99.90;;;;;;4901116;29;20282;-86
2023/12/02 00:55:57;;;;;;;6.27;3.90;;;-1.70;99.90;;;;;;4893871;29;20262;-86
2023/12/02 00:58:23;;;;;;;5.40;3.63;;;-1.70;99.90;;;;;;4893626;29;20685;-86
2023/12/02 01:00:48;;;;;;;6.30;4.27;;;-1.70;99.90;;;;;;4901607;29;20632;-84
2023/12/02 01:03:14;;;;;;;5.73;4.00;;;-1.70;99.90;;;;;;4896726;29;20309;-87
2023/12/02 01:05:40;;;;;;;5.53;3.80;;;-1.70;99.90;;;;;;4901914;29;20217;-87
2023/12/02 01:08:05;;;;;;;7.23;4.17;;;-1.80;99.90;;;;;;4920186;29;20684;-87
2023/12/02 01:10:32;;;;;;;6.37;4.57;;;-1.80;99.90;;;;;;4920638;29;20187;-87
2023/12/02 01:12:58;;;;;;;7.93;4.67;;;-1.80;99.90;;;;;;4903850;29;20637;-86
2023/12/02 01:15:23;;;;;;;8.40;5.27;;;-1.70;99.90;;;;;;4903284;29;20222;-87
2023/12/02 01:17:49;;;;;;;6.90;4.50;;;-1.80;99.90;;;;;;4903002;29;20187;-86
2023/12/02 01:20:15;;;;;;;7.10;5.20;;;-1.70;99.90;;;;;;4895497;29;20527;-87
2023/12/02 01:22:40;;;;;;;7.77;5.37;;;-1.70;99.90;;;;;;4902631;29;20658;-85
2023/12/02 01:25:06;;;;;;;6.90;5.07;;;-1.70;99.90;;;;;;4903528;29;20198;-87
2023/12/02 01:27:32;;;;;;;10.60;5.60;;;-1.70;99.90;;;;;;4903496;29;20214;-86
2023/12/02 01:29:57;;;;;;;6.87;4.47;;;-1.80;99.90;;;;;;4920096;29;20273;-85
2023/12/02 01:32:24;;;;;;;9.17;5.10;;;-1.80;99.90;;;;;;4917207;29;20230;-85
2023/12/02 01:34:50;;;;;;;7.87;5.30;;;-1.80;99.90;;;;;;4912540;29;20198;-86
2023/12/02 01:37:15;;;;;;;7.80;5.37;;;-1.80;99.90;;;;;;4903076;29;20191;-86
2023/12/02 01:39:41;;;;;;;10.83;5.40;;;-1.80;99.90;;;;;;4903223;29;20534;-87
2023/12/02 01:42:09;;;;;;;8.87;5.83;;;-1.80;99.90;;;;;;4919670;29;20241;-87
2023/12/02 01:44:34;;;;;;;11.30;7.00;;;-1.80;99.90;;;;;;4919833;29;20202;-87
2023/12/02 01:47:00;;;;;;;9.57;6.33;;;-1.80;99.90;;;;;;4919371;29;20532;-84
2023/12/02 01:49:27;;;;;;;11.60;7.00;;;-1.70;99.90;;;;;;4919693;29;20193;-87
2023/12/02 01:51:54;;;;;;;12.57;7.07;;;-1.80;99.90;;;;;;4920172;29;20513;-87
2023/12/02 01:54:20;;;;;;;10.13;6.53;;;-1.80;99.90;;;;;;4912161;29;20183;-86
2023/12/02 02:10:40;;;;;;;10.90;6.90;;;-1.90;99.90;;;;;;2652528;29;20248;-81
2023/12/02 02:13:06;;;;;;;11.17;7.13;;;-1.90;99.90;;;;;;4875252;29;20207;-87
2023/12/02 02:15:32;;;;;;;10.63;7.03;;;-2.00;99.90;;;;;;4880137;29;20260;-85
2023/12/02 02:17:57;;;;;;;11.47;6.80;;;-1.90;99.90;;;;;;4872208;29;20204;-86
2023/12/02 02:20:23;;;;;;;11.07;6.20;;;-2.00;99.90;;;;;;4856617;29;20219;-86
2023/12/02 02:22:49;;;;;;;10.87;7.10;;;-1.90;99.90;;;;;;4864164;29;20311;-86
2023/12/02 02:25:15;;;;;;;9.77;6.27;;;-1.90;99.90;;;;;;4857445;29;20196;-86
2023/12/02 02:27:40;;;;;;;11.00;7.30;;;-1.90;99.90;;;;;;4876380;29;20303;-87
2023/12/02 02:30:07;;;;;;;11.73;6.73;;;-1.90;99.90;;;;;;4869651;29;20192;-86
2023/12/02 02:32:33;;;;;;;10.67;6.57;;;-1.90;99.90;;;;;;4879224;29;20306;-86
2023/12/02 02:34:59;;;;;;;10.97;6.73;;;-1.80;99.90;;;;;;4863945;29;20203;-86
2023/12/02 02:37:25;;;;;;;10.67;6.70;;;-1.80;99.90;;;;;;4879626;29;20203;-86
2023/12/02 02:39:50;;;;;;;10.50;6.73;;;-1.90;99.90;;;;;;4863626;29;20208;-87
2023/12/02 02:42:18;;;;;;;11.73;6.90;;;-2.00;99.90;;;;;;4863868;29;20192;-87
2023/12/02 02:44:44;;;;;;;12.27;7.03;;;-2.20;99.90;;;;;;4881758;29;20239;-86
2023/12/02 02:47:09;;;;;;;11.60;7.87;;;-2.20;99.90;;;;;;4897811;29;20221;-87
2023/12/02 02:49:35;;;;;;;13.47;7.63;;;-2.20;99.90;;;;;;4898704;29;20550;-87
2023/12/02 02:52:01;;;;;;;12.27;7.27;;;-2.20;99.90;;;;;;4899859;29;20508;-86
2023/12/02 02:54:26;;;;;;;11.33;6.83;;;-2.10;99.90;;;;;;4898582;29;20627;-86
2023/12/02 02:56:53;;;;;;;10.23;7.00;;;-2.10;99.90;;;;;;4898859;29;20298;-87
2023/12/02 02:59:19;;;;;;;13.00;8.00;;;-2.20;99.90;;;;;;4898752;29;20603;-85
2023/12/02 03:01:48;;;;;;;13.20;7.20;;;-2.20;99.90;;;;;;4898510;29;20235;-86
2023/12/02 03:04:14;;;;;;;12.27;8.43;;;-2.20;99.90;;;;;;4898413;29;20222;-87
2023/12/02 03:06:40;;;;;;;13.20;7.87;;;-2.20;99.90;;;;;;4898558;29;20253;-86
2023/12/02 03:09:07;;;;;;;15.17;8.20;;;-2.10;99.90;;;;;;4898504;29;20622;-86
2023/12/02 03:11:35;;;;;;;14.77;9.13;;;-2.10;99.90;;;;;;4901578;29;20241;-86
2023/12/02 03:16:36;;;;;;;11.40;7.17;;;-2.00;99.90;;;;;;5083749;23;20501;-85
2023/12/02 03:19:02;;;;;;;11.40;7.17;;;-2.10;99.90;;;;;;4937216;29;20526;-85
2023/12/02 03:21:28;;;;;;;15.00;7.90;;;-2.10;99.90;;;;;;4939402;29;20196;-86
2023/12/02 03:23:53;;;;;;;13.77;8.70;;;-2.10;99.90;;;;;;4956544;29;20212;-85
2023/12/02 03:26:19;;;;;;;14.03;8.83;;;-2.10;99.90;;;;;;4939410;29;20192;-85
2023/12/02 03:28:45;;;;;;;17.97;9.47;;;-2.20;99.90;;;;;;4956554;29;20194;-86
2023/12/02 03:31:10;;;;;;;14.87;9.90;;;-2.20;99.90;;;;;;4938875;29;20287;-85
2023/12/02 03:33:36;;;;;;;18.67;9.43;;;-2.20;99.90;;;;;;4934597;29;20282;-86
2023/12/02 03:36:02;;;;;;;15.17;9.17;;;-2.20;99.90;;;;;;4936350;29;20238;-85
2023/12/02 03:38:27;;;;;;;18.57;10.50;;;-2.20;99.90;;;;;;4956608;29;20188;-87
2023/12/02 03:40:53;;;;;;;17.57;9.53;;;-2.10;99.90;;;;;;4939464;29;20199;-84
2023/12/02 03:43:18;;;;;;;17.63;10.23;;;-2.10;99.90;;;;;;4939285;29;20267;-86
2023/12/02 03:45:44;;;;;;;15.47;9.63;;;-2.10;99.90;;;;;;4956870;28;20189;-85
2023/12/02 03:48:11;;;;;;;16.50;9.80;;;-2.00;99.90;;;;;;4952127;29;20284;-86
2023/12/02 03:50:36;;;;;;;15.43;8.93;;;-1.90;99.90;;;;;;4955258;29;20508;-84
2023/12/02 03:53:02;;;;;;;15.63;9.60;;;-1.90;99.90;;;;;;4957034;29;20518;-85
2023/12/02 03:55:28;;;;;;;18.63;9.73;;;-2.00;99.90;;;;;;4943110;29;20650;-86
2023/12/02 03:57:56;;;;;;;16.17;8.87;;;-2.00;99.90;;;;;;4960462;29;20189;-84
2023/12/02 04:00:21;;;;;;;16.47;10.17;;;-2.00;99.90;;;;;;4957027;29;20324;-85
2023/12/02 04:02:47;;;;;;;19.20;9.57;;;-2.00;99.90;;;;;;4954961;29;20295;-85
2023/12/02 04:05:15;;;;;;;17.23;9.10;;;-2.10;99.90;;;;;;4959874;29;20189;-85
2023/12/02 04:07:42;;;;;;;15.63;8.80;;;-2.10;99.90;;;;;;4942666;29;20196;-82
2023/12/02 04:10:08;;;;;;;16.40;9.07;;;-2.20;99.90;;;;;;4958408;29;20200;-86
2023/12/02 04:12:34;;;;;;;15.50;8.97;;;-2.10;99.90;;;;;;4923697;29;20186;-86
2023/12/02 04:15:00;;;;;;;17.80;9.27;;;-2.10;99.90;;;;;;4929782;29;20574;-84
2023/12/02 04:17:28;;;;;;;16.27;9.33;;;-2.10;99.90;;;;;;4938981;29;20511;-86
2023/12/02 04:19:53;;;;;;;17.73;8.73;;;-2.10;99.90;;;;;;4938672;29;20193;-85
2023/12/02 04:22:19;;;;;;;15.40;9.10;;;-2.00;99.90;;;;;;4942469;29;20207;-86
2023/12/02 04:24:48;;;;;;;15.07;7.37;;;-2.00;99.90;;;;;;4942464;29;20197;-86
2023/12/02 04:27:15;;;;;;;11.70;7.47;;;-1.90;99.90;;;;;;4955028;29;20182;-86
2023/12/02 04:29:42;;;;;;;17.37;8.73;;;-1.90;99.90;;;;;;4959465;29;20189;-86
2023/12/02 04:32:08;;;;;;;12.40;7.33;;;-1.80;99.90;;;;;;4941799;29;20220;-85
2023/12/02 04:34:35;;;;;;;11.23;6.63;;;-1.90;99.90;;;;;;4942118;29;20638;-86
2023/12/02 04:37:02;;;;;;;13.27;7.67;;;-1.90;99.90;;;;;;4942116;29;20194;-85
2023/12/02 04:39:29;;;;;;;12.87;7.27;;;-1.80;99.90;;;;;;4942218;29;20189;-86
2023/12/02 04:41:54;;;;;;;13.10;7.67;;;-1.90;99.90;;;;;;4958820;29;20264;-86
2023/12/02 04:44:20;;;;;;;11.33;6.93;;;-2.00;99.90;;;;;;4956450;29;20312;-85
2023/12/02 04:46:48;;;;;;;12.77;5.97;;;-2.00;99.90;;;;;;4936732;29;20251;-85
2023/12/02 04:49:14;;;;;;;9.37;6.00;;;-1.90;99.90;;;;;;4957049;29;20276;-84
2023/12/02 04:51:39;;;;;;;10.50;5.50;;;-2.00;99.90;;;;;;4936514;29;20213;-86
2023/12/02 04:54:05;;;;;;;10.87;5.70;;;-2.00;99.90;;;;;;4933885;29;20193;-86
2023/12/02 04:56:31;;;;;;;9.20;5.17;;;-2.00;99.90;;;;;;4940866;29;20187;-86
2023/12/02 04:58:56;;;;;;;6.07;3.70;;;-2.00;99.90;;;;;;4941894;29;20283;-85
2023/12/02 05:01:22;;;;;;;6.30;3.70;;;-2.10;99.90;;;;;;4958600;29;20646;-86
2023/12/02 05:03:48;;;;;;;5.43;3.10;;;-2.20;99.90;;;;;;4958767;29;20213;-86
2023/12/02 05:06:15;;;;;;;6.00;3.77;;;-2.20;99.90;;;;;;4958693;29;20181;-86
2023/12/02 05:08:44;;;;;;;5.30;3.53;;;-2.30;99.90;;;;;;4941391;29;20686;-85
2023/12/02 05:11:20;;;;;;;6.80;4.30;;;-2.30;99.90;;;;;;4933720;29;20192;-85
2023/12/02 05:13:52;;;;;;;7.23;4.13;;;-2.20;99.90;;;;;;4941572;29;20236;-85
2023/12/02 05:16:18;;;;;;;6.70;4.10;;;-2.20;99.90;;;;;;4956880;29;20556;-86
2023/12/02 05:18:46;;;;;;;7.10;4.40;;;-2.20;99.90;;;;;;4931051;29;20196;-87
2023/12/02 05:21:12;;;;;;;4.93;3.60;;;-2.20;99.90;;;;;;4940484;29;20215;-86
2023/12/02 05:23:40;;;;;;;5.27;3.47;;;-2.10;99.90;;;;;;4958300;29;20671;-85
2023/12/02 05:26:06;;;;;;;6.60;4.20;;;-2.10;99.90;;;;;;4950378;29;20203;-85
2023/12/02 05:28:32;;;;;;;6.17;3.90;;;-2.10;99.90;;;;;;4958208;29;20181;-86
2023/12/02 05:30:58;;;;;;;5.70;4.00;;;-2.00;99.90;;;;;;4940890;29;20276;-86
2023/12/02 05:33:24;;;;;;;6.47;4.03;;;-2.10;99.90;;;;;;4941067;29;20284;-86
2023/12/02 05:35:50;;;;;;;4.67;3.43;;;-2.00;99.90;;;;;;4926712;29;20326;-86
2023/12/02 05:38:16;;;;;;;5.80;3.70;;;-2.00;99.90;;;;;;4956911;29;20239;-86
2023/12/02 05:40:43;;;;;;;6.97;4.10;;;-2.00;99.90;;;;;;4940953;29;20212;-86
2023/12/02 05:43:08;;;;;;;5.40;3.50;;;-1.90;99.90;;;;;;4957916;29;20201;-86
2023/12/02 05:45:34;;;;;;;5.90;3.83;;;-1.90;99.90;;;;;;4956556;29;20188;-86
2023/12/02 05:48:00;;;;;;;6.37;4.23;;;-1.90;99.90;;;;;;4937212;29;20992;-85
2023/12/02 05:50:29;;;;;;;7.67;4.20;;;-1.90;99.90;;;;;;4937375;29;20288;-86
2023/12/02 05:52:54;;;;;;;7.23;4.57;;;-1.80;99.90;;;;;;4936793;29;20189;-86
2023/12/02 05:55:21;;;;;;;6.43;3.77;;;-1.80;99.90;;;;;;4957719;29;20511;-86
2023/12/02 05:57:46;;;;;;;6.10;4.03;;;-1.80;99.90;;;;;;4932497;29;20185;-86
2023/12/02 06:00:16;;;;;;;7.50;4.40;;;-1.80;99.90;;;;;;4940297;29;20193;-86
2023/12/02 06:02:42;;;;;;;10.53;5.30;;;-1.80;99.90;;;;;;4949012;29;20318;-84
2023/12/02 06:05:08;;;;;;;6.50;4.53;;;-1.80;99.90;;;;;;4957581;29;20222;-86
2023/12/02 06:07:35;;;;;;;6.90;4.13;;;-1.80;99.90;;;;;;4940645;29;20238;-86
2023/12/02 06:10:00;;;;;;;8.63;4.73;;;-1.80;99.90;;;;;;4949351;29;20189;-84
2023/12/02 06:12:27;;;;;;;7.07;4.40;;;-1.80;99.90;;;;;;4954007;29;20523;-85
2023/12/02 06:14:53;;;;;;;6.63;4.40;;;-1.70;99.90;;;;;;4940626;29;20192;-85
2023/12/02 06:17:18;;;;;;;7.60;4.60;;;-1.70;99.90;;;;;;4939809;29;20189;-86
2023/12/02 06:19:44;;;;;;;8.00;4.83;;;-1.70;99.90;;;;;;4931773;29;20193;-87
2023/12/02 06:22:10;;;;;;;8.03;4.97;;;-1.70;99.90;;;;;;4955193;29;20253;-87
2023/12/02 06:24:36;;;;;;;7.57;5.57;;;-1.70;99.90;;;;;;4957040;29;20228;-86
2023/12/02 06:27:02;;;;;;;9.67;5.33;;;-1.70;99.90;;;;;;4939897;29;20189;-86
2023/12/02 06:29:30;;;;;;;7.93;5.10;;;-1.70;99.90;;;;;;4933693;29;20197;-86
2023/12/02 06:31:56;;;;;;;10.87;5.70;;;-1.80;99.90;;;;;;4932956;29;20627;-86
2023/12/02 06:34:21;;;;;;;7.50;4.90;;;-1.80;99.90;;;;;;4936916;29;20264;-85
2023/12/02 06:36:47;;;;;;;11.77;6.47;;;-1.70;99.90;;;;;;4956729;29;20271;-84
2023/12/02 06:39:13;;;;;;;10.77;6.33;;;-1.80;99.90;;;;;;4939339;29;20539;-85
2023/12/02 06:41:41;;;;;;;9.27;5.70;;;-1.70;99.90;;;;;;4956469;29;20192;-84
2023/12/02 06:44:07;;;;;;;8.93;5.37;;;-1.80;99.90;;;;;;4956860;29;20212;-85
2023/12/02 06:46:32;;;;;;;10.07;5.73;;;-1.80;99.90;;;;;;4956733;29;20240;-85
2023/12/02 06:48:59;;;;;;;10.60;6.20;;;-1.70;99.90;;;;;;4934729;29;20193;-86
2023/12/02 06:51:29;;;;;;;9.37;5.97;;;-1.70;99.90;;;;;;4924730;29;20194;-86
2023/12/02 06:53:55;;;;;;;9.57;6.03;;;-1.80;99.90;;;;;;4936965;29;20263;-83
2023/12/02 06:56:23;;;;;;;10.33;6.50;;;-1.80;99.90;;;;;;4938860;29;20193;-84
2023/12/02 06:58:50;;;;;;;10.47;6.57;;;-1.70;99.90;;;;;;4956517;29;20185;-83
2023/12/02 07:01:42;;;;;;;9.73;6.33;;;-1.70;99.90;;;;;;4949644;29;20217;-82
2023/12/02 07:04:08;;;;;;;11.67;6.30;;;-1.70;99.90;;;;;;4924234;29;20277;-82
2023/12/02 07:06:33;;;;;;;12.20;7.20;;;-1.60;99.90;;;;;;4938965;29;20197;-82
2023/12/02 07:09:00;;;;;;;11.23;6.43;;;-1.60;99.90;;;;;;4931285;29;20194;-82
2023/12/02 07:11:26;;;;;;;12.57;6.77;;;-1.60;99.90;;;;;;4929055;29;20196;-84
2023/12/02 07:13:51;;;;;;;13.53;6.87;;;-1.60;99.90;;;;;;4956487;29;20189;-82
2023/12/02 07:16:18;;;;;;;11.10;6.17;;;-1.60;99.90;;;;;;4935489;29;20228;-84
2023/12/02 07:18:45;;;;;;;12.10;6.50;;;-1.60;99.90;;;;;;4936178;29;20193;-85
2023/12/02 07:21:10;;;;;;;11.40;7.07;;;-1.50;99.90;;;;;;4938231;29;20181;-84
2023/12/02 07:23:36;;;;;;;10.77;6.97;;;-1.50;99.90;;;;;;4936932;29;20213;-82
2023/12/02 07:26:02;;;;;;;12.53;7.47;;;-1.50;99.90;;;;;;4925034;29;20523;-82
2023/12/02 07:28:28;;;;;;;11.37;7.17;;;-1.50;99.90;;;;;;4926661;29;20193;-84
2023/12/02 07:30:55;;;;;;;11.77;6.10;;;-1.50;99.90;;;;;;4936757;29;20185;-82
2023/12/02 07:33:21;;;;;;;12.40;7.07;;;-1.50;99.90;;;;;;4938510;29;20188;-82
2023/12/02 07:35:47;;;;;;;10.93;6.10;;;-1.50;99.90;;;;;;4956179;29;20185;-84
2023/12/02 07:38:13;;;;;;;11.03;6.40;;;-1.50;99.90;;;;;;4932766;29;20585;-81
2023/12/02 07:40:39;;;;;;;10.97;6.97;;;-1.50;99.90;;;;;;4938738;29;20185;-82
2023/12/02 07:43:05;;;;;;;11.37;7.13;;;-1.40;99.90;;;;;;4955261;29;20252;-81
2023/12/02 07:45:31;;;;;;;10.40;6.60;;;-1.40;99.90;;;;;;4933033;29;20185;-85
2023/12/02 07:47:57;;;;;;;11.50;7.33;;;-1.40;99.90;;;;;;4953129;29;20531;-86
2023/12/02 07:50:23;;;;;;;11.27;6.53;;;-1.40;99.90;;;;;;4938195;29;20710;-83
2023/12/02 07:52:49;;;;;;;9.43;5.87;;;-1.30;99.90;;;;;;4934491;29;20581;-85
2023/12/02 07:55:15;;;;;;;11.70;6.30;;;-1.30;99.90;;;;;;4936927;29;20276;-83
2023/12/02 07:57:41;;;;;;;10.47;6.27;;;-1.30;99.90;;;;;;4956264;29;20181;-84
2023/12/02 08:00:10;;;;;;;11.77;6.40;;;-1.20;99.90;;;;;;4935115;29;20189;-85
2023/12/02 08:02:35;;;;;;;11.97;6.73;;;-1.20;99.90;;;;;;4942508;29;20185;-86
2023/12/02 08:05:01;;;;;;;10.63;7.00;;;-1.20;99.90;;;;;;4948437;29;20193;-85
2023/12/02 08:07:27;;;;;;;10.93;6.83;;;-1.20;99.90;;;;;;4938974;29;20189;-83
2023/12/02 08:09:55;;;;;;;10.77;6.77;;;-1.20;99.90;;;;;;4938867;29;20624;-84
2023/12/02 08:12:20;;;;;;;12.37;7.17;;;-1.20;99.90;;;;;;4936270;29;20194;-86
2023/12/02 08:14:46;;;;;;;13.33;7.37;;;-1.20;99.90;;;;;;4950521;29;20185;-85
2023/12/02 08:17:11;;;;;;;13.67;7.67;;;-1.20;99.90;;;;;;4936952;29;20193;-86
2023/12/02 08:19:37;;;;;;;12.13;7.13;;;-1.10;99.90;;;;;;4949980;29;20216;-85
2023/12/02 08:22:03;;;;;;;12.20;7.13;;;-1.10;99.90;;;;;;4955985;29;20294;-86
2023/12/02 08:24:32;;;;;;;13.30;7.20;;;-1.10;99.90;;;;;;4948220;29;20285;-86
2023/12/02 08:26:58;;;;;;;11.73;6.97;;;-1.00;99.90;;;;;;4954381;29;20177;-86
2023/12/02 08:29:25;;;;;;;13.37;7.67;;;-0.90;99.90;;;;;;4955670;29;20185;-85
2023/12/02 08:31:51;;;;;;;10.23;6.57;;;-0.80;99.90;;;;;;4940900;29;20195;-85
2023/12/02 08:34:17;;;;;;;10.83;7.00;;;-0.80;99.90;;;;;;4932014;29;20237;-85
2023/12/02 08:36:44;;;;;;;13.03;7.93;;;-0.70;99.90;;;;;;4946699;29;20185;-85
2023/12/02 08:39:11;;;;;;;12.00;6.73;;;-0.70;99.90;;;;;;4916030;29;20346;-86
2023/12/02 08:41:38;;;;;;;13.13;7.40;;;-0.70;99.90;;;;;;4931423;29;20186;-86
2023/12/02 08:44:04;;;;;;;11.90;7.10;;;-0.60;99.90;;;;;;4933410;29;20683;-85
2023/12/02 08:46:30;;;;;;;15.33;7.30;;;-0.60;99.90;;;;;;4944483;29;20612;-85
2023/12/02 08:48:56;;;;;;;12.83;7.27;;;-0.60;99.90;;;;;;4935464;29;20212;-85
2023/12/02 08:51:21;;;;;;;13.27;7.83;;;-0.50;99.90;;;;;;4938237;29;20546;-84
2023/12/02 08:53:51;;;;;;;11.63;7.07;;;-0.50;99.90;;;;;;4933823;29;20567;-85
2023/12/02 08:56:17;;;;;;;12.53;7.77;;;-0.50;99.90;;;;;;4934771;29;20181;-84
2023/12/02 08:58:45;;;;;;;15.57;8.23;;;-0.50;99.90;;;;;;4932270;29;20197;-85
2023/12/02 09:01:10;;;;;;;14.03;8.00;;;-0.40;99.90;;;;;;4934137;29;20181;-82
2023/12/02 09:03:36;;;;;;;12.60;7.73;;;-0.40;99.90;;;;;;4926834;29;20220;-86
2023/12/02 09:06:03;;;;;;;15.33;7.80;;;-0.60;99.90;;;;;;4929480;29;20221;-85
2023/12/02 09:08:28;;;;;;;14.07;8.17;;;-0.60;99.90;;;;;;4925907;29;20185;-85
2023/12/02 09:11:02;;;;;;;15.37;8.47;;;-0.70;99.90;;;;;;4929659;29;20527;-85
2023/12/02 09:13:40;;;;;;;15.37;8.60;;;-0.70;99.90;;;;;;4925225;29;20194;-87
2023/12/02 09:16:15;;;;;;;14.30;8.40;;;-0.70;99.90;;;;;;4946434;29;20253;-84
2023/12/02 09:18:41;;;;;;;13.60;8.30;;;-0.80;99.90;;;;;;4947677;29;20192;-84
2023/12/02 09:21:28;;;;;;;14.57;8.60;;;-0.80;99.90;;;;;;4933588;29;20193;-89
2023/12/02 09:23:55;;;;;;;15.50;9.07;;;-0.70;99.90;;;;;;4950269;29;20241;-89
2023/12/02 09:26:29;;;;;;;15.27;9.00;;;-0.80;99.90;;;;;;4929601;29;20635;-88
2023/12/02 09:28:55;;;;;;;15.37;9.43;;;-0.70;99.90;;;;;;4935421;29;20184;-90
2023/12/02 09:31:21;;;;;;;15.33;9.17;;;-0.70;99.90;;;;;;4947059;29;20628;-89
2023/12/02 09:33:59;;;;;;;15.90;9.80;;;-0.70;99.90;;;;;;4944659;29;20275;-89
2023/12/02 09:36:39;;;;;;;18.80;11.30;;;-0.60;99.90;;;;;;4943200;29;20263;-88
2023/12/02 09:39:17;;;;;;;17.67;10.30;;;-0.60;99.90;;;;;;4921980;29;20185;-89
2023/12/02 09:41:51;;;;;;;19.17;11.37;;;-0.60;99.90;;;;;;4934732;29;20253;-88
2023/12/02 09:44:27;;;;;;;19.80;12.43;;;-0.50;99.90;;;;;;4952833;29;20236;-88
2023/12/02 09:47:31;;;;;;;22.57;12.90;;;-0.60;99.90;;;;;;4943914;29;20645;-88
2023/12/02 09:50:06;;;;;;;20.13;11.93;;;-0.50;99.90;;;;;;4905282;29;20224;-87
2023/12/02 09:52:46;;;;;;;22.50;12.87;;;-0.50;99.90;;;;;;4932095;29;20192;-88
2023/12/02 09:55:23;;;;;;;21.73;12.63;;;-0.50;99.90;;;;;;4929025;29;20192;-88
2023/12/02 09:58:01;;;;;;;22.53;13.23;;;-0.50;99.90;;;;;;4938583;29;20279;-88
2023/12/02 10:00:50;;;;;;;23.27;12.63;;;-0.50;99.90;;;;;;4927634;29;20193;-89
2023/12/02 10:03:33;;;;;;;22.60;13.27;;;-0.50;99.90;;;;;;4954571;29;20228;-88
2023/12/02 10:06:16;;;;;;;21.70;13.43;;;-0.60;99.90;;;;;;4956362;29;20193;-89
2023/12/02 10:09:09;;;;;;;20.23;12.93;;;-0.60;99.90;;;;;;4937726;29;20629;-86
2023/12/02 10:11:58;;;;;;;25.57;12.83;;;-0.60;99.90;;;;;;4936245;29;20233;-89
2023/12/02 10:14:26;;;;;;;27.33;14.20;;;-0.60;99.90;;;;;;4940011;29;20264;-88
2023/12/02 10:16:55;;;;;;;27.77;14.47;;;-0.60;99.90;;;;;;4933825;29;20288;-89
2023/12/02 10:19:42;;;;;;;26.10;14.40;;;-0.70;99.90;;;;;;4931047;29;20264;-88
2023/12/02 10:22:11;;;;;;;24.90;14.27;;;-0.70;99.90;;;;;;4954592;29;20594;-90
2023/12/02 10:24:45;;;;;;;30.73;15.00;;;-0.70;99.90;;;;;;4952783;29;20205;-89
2023/12/02 10:27:17;;;;;;;28.37;16.00;;;-0.70;99.90;;;;;;4954512;29;20633;-92
2023/12/02 10:30:18;;;;;;;28.93;15.80;;;-0.70;99.90;;;;;;4935313;29;20624;-90
2023/12/02 10:33:10;;;;;;;29.23;15.47;;;-0.60;99.90;;;;;;4928289;29;20711;-90
2023/12/02 10:35:46;;;;;;;30.83;15.07;;;-0.60;99.90;;;;;;4926090;29;20181;-90
2023/12/02 10:38:22;;;;;;;30.93;17.53;;;-0.60;99.90;;;;;;4952347;29;20207;-88
2023/12/02 10:40:58;;;;;;;31.77;17.13;;;-0.60;99.90;;;;;;4935996;29;20185;-90
2023/12/02 10:43:37;;;;;;;31.60;17.20;;;-0.60;99.90;;;;;;4925606;29;20669;-90
2023/12/02 10:46:05;;;;;;;29.03;17.23;;;-0.60;99.90;;;;;;4930913;29;20338;-90
2023/12/02 10:48:31;;;;;;;31.13;17.67;;;-0.60;99.90;;;;;;4953435;29;20190;-90
2023/12/02 10:50:59;;;;;;;29.03;17.30;;;-0.60;99.90;;;;;;4933886;29;20190;-89
2023/12/02 10:53:26;;;;;;;33.03;18.87;;;-0.60;99.90;;;;;;4930096;28;20247;-88
2023/12/02 10:56:11;;;;;;;29.23;17.33;;;-0.60;99.90;;;;;;4939948;29;20201;-89
2023/12/02 10:58:41;;;;;;;31.03;18.27;;;-0.60;99.90;;;;;;4950347;29;20173;-88
2023/12/02 11:01:29;;;;;;;33.63;17.97;;;-0.60;99.90;;;;;;4956725;29;20185;-91
2023/12/02 11:04:02;;;;;;;35.03;18.97;;;-0.60;99.90;;;;;;4949117;29;20308;-90
2023/12/02 11:06:33;;;;;;;32.00;18.10;;;-0.70;99.90;;;;;;4932532;29;20185;-90
2023/12/02 11:09:10;;;;;;;33.13;18.40;;;-0.70;99.90;;;;;;4939714;29;20185;-89
2023/12/02 11:11:42;;;;;;;32.17;18.23;;;-0.70;99.90;;;;;;4939813;29;20192;-89
2023/12/02 11:14:16;;;;;;;32.57;17.63;;;-0.60;99.90;;;;;;4949046;29;20209;-90
2023/12/02 11:17:06;;;;;;;30.93;17.43;;;-0.60;99.90;;;;;;4935281;29;20552;-90
2023/12/02 11:20:12;;;;;;;29.13;17.30;;;-0.70;99.90;;;;;;4903687;29;20205;-90
2023/12/02 11:23:09;;;;;;;31.83;17.50;;;-0.60;99.90;;;;;;4920247;29;20189;-91
2023/12/02 11:26:00;;;;;;;31.40;18.00;;;-0.60;99.90;;;;;;4929767;29;20205;-90
2023/12/02 11:29:01;;;;;;;30.13;17.27;;;-0.50;99.90;;;;;;4921123;29;20182;-90
2023/12/02 11:32:02;;;;;;;32.60;18.20;;;-0.40;99.90;;;;;;4921356;29;20190;-90
2023/12/02 11:34:37;;;;;;;32.13;17.63;;;-0.50;99.90;;;;;;4922564;29;20182;-90
2023/12/02 11:37:28;;;;;;;32.40;17.77;;;-0.40;99.90;;;;;;4922252;29;20186;-90
2023/12/02 11:40:00;;;;;;;33.20;16.50;;;-0.50;99.90;;;;;;4928347;29;20260;-91
2023/12/02 11:42:34;;;;;;;31.70;17.40;;;-0.40;99.90;;;;;;4920721;29;20186;-90
2023/12/02 11:45:10;;;;;;;37.77;17.80;;;-0.40;99.90;;;;;;4924096;29;20199;-90
2023/12/02 11:47:55;;;;;;;37.03;18.63;;;-0.40;99.90;;;;;;4920362;29;20184;-90
2023/12/02 11:50:47;;;;;;;34.13;17.90;;;-0.40;99.90;;;;;;4935501;29;20190;-89
2023/12/02 11:53:30;;;;;;;33.83;17.43;;;-0.40;99.90;;;;;;4933010;29;20688;-90
2023/12/02 11:56:14;;;;;;;34.17;17.13;;;-0.30;99.90;;;;;;4928699;29;20198;-90
2023/12/02 11:58:58;;;;;;;33.13;16.60;;;-0.30;99.90;;;;;;4924693;29;20220;-91
2023/12/02 12:02:00;;;;;;;32.00;17.47;;;-0.40;99.90;;;;;;4924561;29;20185;-89
2023/12/02 12:04:35;;;;;;;29.50;16.90;;;-0.40;99.90;;;;;;4877689;29;20567;-89
2023/12/02 12:07:30;;;;;;;36.13;17.60;;;-0.50;99.90;;;;;;4923301;29;20221;-90
2023/12/02 12:10:03;;;;;;;31.10;18.07;;;-0.40;99.90;;;;;;4924782;29;20285;-91
2023/12/02 12:12:33;;;;;;;35.50;18.10;;;-0.40;99.90;;;;;;4927894;29;20185;-89
2023/12/02 12:15:01;;;;;;;34.67;18.17;;;-0.40;99.90;;;;;;4938876;29;20316;-90
2023/12/02 12:17:30;;;;;;;32.30;18.80;;;-0.40;99.90;;;;;;4952253;29;20228;-90
2023/12/02 12:20:00;;;;;;;33.00;17.87;;;-0.50;99.90;;;;;;4958365;29;20616;-89
2023/12/02 12:22:26;;;;;;;32.77;17.77;;;-0.50;99.90;;;;;;4940531;29;20189;-90
2023/12/02 12:24:53;;;;;;;33.50;17.97;;;-0.50;99.90;;;;;;4951264;29;20305;-91
2023/12/02 12:27:18;;;;;;;33.37;18.80;;;-0.40;99.90;;;;;;4948484;29;20745;-90
2023/12/02 12:29:55;;;;;;;38.03;19.13;;;-0.30;99.90;;;;;;4948674;29;20276;-90
2023/12/02 12:32:22;;;;;;;35.10;17.97;;;-0.40;99.90;;;;;;4947919;29;20251;-90
2023/12/02 12:34:53;;;;;;;34.73;18.87;;;-0.40;99.90;;;;;;4931063;29;20198;-90
2023/12/02 12:37:19;;;;;;;35.40;19.43;;;-0.40;99.90;;;;;;4945570;29;20616;-89
2023/12/02 12:39:45;;;;;;;38.53;20.03;;;-0.40;99.90;;;;;;4934607;29;20202;-91
2023/12/02 12:42:13;;;;;;;39.70;20.37;;;-0.40;99.90;;;;;;4927067;29;20191;-91
2023/12/02 12:44:40;;;;;;;41.07;20.23;;;-0.40;99.90;;;;;;4929470;29;20225;-90
2023/12/02 12:47:14;;;;;;;48.23;20.13;;;-0.40;99.90;;;;;;4950479;29;20220;-89
2023/12/02 12:49:43;;;;;;;39.07;20.93;;;-0.40;99.90;;;;;;4948301;29;20189;-89
2023/12/02 12:52:20;;;;;;;39.60;20.90;;;-0.30;99.90;;;;;;4936044;29;20190;-89
2023/12/02 12:54:59;;;;;;;47.30;25.50;;;-0.30;99.90;;;;;;4936543;29;20224;-91
2023/12/02 12:58:02;;;;;;;42.40;21.33;;;-0.30;99.90;;;;;;4944440;29;20214;-91
2023/12/02 13:00:32;;;;;;;41.77;21.27;;;-0.30;99.90;;;;;;4931784;29;20649;-91
2023/12/02 13:03:27;;;;;;;39.63;20.97;;;-0.40;99.90;;;;;;4922244;29;20206;-83
2023/12/02 13:06:23;;;;;;;37.13;20.00;;;-0.30;99.90;;;;;;4925901;29;20302;-90